Time;durP1;ratioP1;P1;durP2;ratioP2;P2;SDS_P1;SDS_P2;PMS_P1;PMS_P2;Temp;Humidity;BMP_temperature;BMP_pressure;BME280_temperature;BME280_humidity;BME280_pressure;Samples;Min_cycle;Max_cycle;Signal;HPM_P1;HPM_P2
2023/02/03 00:00:23;;;;;;;6.50;1.30;;;6.80;99.90;;;;;;5049182;28;20476;-60
2023/02/03 00:02:49;;;;;;;5.35;1.30;;;7.80;99.90;;;;;;5050189;28;20452;-60
2023/02/03 00:05:15;;;;;;;4.10;0.80;;;6.70;1.00;;;;;;5049389;28;20385;-60
2023/02/03 00:07:43;;;;;;;4.60;1.00;;;6.70;99.90;;;;;;5050034;28;20384;-60
2023/02/03 00:10:09;;;;;;;4.88;1.00;;;6.80;99.90;;;;;;5049485;28;20413;-60
2023/02/03 00:12:34;;;;;;;6.88;1.50;;;6.80;99.90;;;;;;5050089;28;20421;-61
2023/02/03 00:15:00;;;;;;;5.10;1.23;;;6.90;1.00;;;;;;5049845;28;20898;-60
2023/02/03 00:17:26;;;;;;;6.47;1.45;;;7.40;1.00;;;;;;5049438;28;20477;-59
2023/02/03 00:19:51;;;;;;;4.90;1.10;;;7.00;99.90;;;;;;5050228;28;20382;-60
2023/02/03 00:22:17;;;;;;;7.65;1.67;;;6.90;99.90;;;;;;5048556;28;20410;-59
2023/02/03 00:24:42;;;;;;;4.80;1.00;;;7.00;99.90;;;;;;5049702;28;20408;-60
2023/02/03 00:27:08;;;;;;;5.03;1.20;;;7.00;99.90;;;;;;5049020;28;20409;-59
2023/02/03 00:29:33;;;;;;;5.40;1.70;;;8.00;99.90;;;;;;5050094;28;20916;-60
2023/02/03 00:31:59;;;;;;;5.67;1.40;;;6.90;99.90;;;;;;5049346;28;20388;-60
2023/02/03 00:34:29;;;;;;;5.35;1.17;;;7.00;1.00;;;;;;5049058;28;20381;-59
2023/02/03 00:36:55;;;;;;;6.72;1.67;;;7.00;99.90;;;;;;5048054;28;20385;-59
2023/02/03 00:39:20;;;;;;;4.90;1.00;;;6.90;1.00;;;;;;5048494;28;20385;-60
2023/02/03 00:41:47;;;;;;;7.90;1.52;;;6.90;99.90;;;;;;5049123;28;20405;-60
2023/02/03 00:44:14;;;;;;;7.60;1.60;;;7.00;99.90;;;;;;5048643;28;20389;-60
2023/02/03 00:46:40;;;;;;;7.50;1.55;;;7.00;99.90;;;;;;5049519;28;20481;-60
2023/02/03 00:49:06;;;;;;;7.55;1.83;;;7.00;27.10;;;;;;5048951;28;20831;-59
2023/02/03 00:51:33;;;;;;;4.97;1.30;;;7.10;1.00;;;;;;5048359;28;20748;-59
2023/02/03 00:53:58;;;;;;;5.20;1.20;;;7.10;99.90;;;;;;5049478;28;20711;-60
2023/02/03 00:56:24;;;;;;;7.35;1.38;;;7.50;1.00;;;;;;5048871;28;20914;-60
2023/02/03 00:58:49;;;;;;;5.00;1.50;;;8.00;1.00;;;;;;5049800;28;20838;-60
2023/02/03 01:01:15;;;;;;;5.00;1.40;;;7.00;99.90;;;;;;5049179;28;20744;-59
2023/02/03 01:03:41;;;;;;;8.52;1.55;;;6.90;1.00;;;;;;5049538;28;20377;-59
2023/02/03 01:06:18;;;;;;;7.70;1.87;;;6.90;99.90;;;;;;5049025;28;20431;-59
2023/02/03 01:08:44;;;;;;;5.90;1.85;;;6.90;99.90;;;;;;5049609;28;20409;-60
2023/02/03 01:11:12;;;;;;;4.95;1.50;;;7.00;99.90;;;;;;5048923;28;20421;-59
2023/02/03 01:13:38;;;;;;;6.85;1.65;;;7.10;99.90;;;;;;5049836;28;20495;-60
2023/02/03 01:16:07;;;;;;;6.20;1.90;;;7.70;1.00;;;;;;5049363;28;20476;-60
2023/02/03 01:18:33;;;;;;;5.00;1.50;;;7.10;99.90;;;;;;5049192;28;20377;-60
2023/02/03 01:21:08;;;;;;;9.83;1.60;;;7.10;99.90;;;;;;5049102;28;20416;-59
2023/02/03 01:23:35;;;;;;;9.80;1.88;;;6.90;99.90;;;;;;5048816;28;20386;-60
2023/02/03 01:26:05;;;;;;;6.00;1.60;;;6.90;1.00;;;;;;5048935;28;20416;-60
2023/02/03 01:28:31;;;;;;;7.78;1.40;;;6.90;52.70;;;;;;5048450;28;20454;-60
2023/02/03 01:31:07;;;;;;;5.53;1.80;;;7.60;47.60;;;;;;5048862;28;21002;-59
2023/02/03 01:33:32;;;;;;;6.50;1.70;;;7.00;1.00;;;;;;5051602;28;20486;-60
2023/02/03 01:36:00;;;;;;;6.97;1.53;;;7.00;1.00;;;;;;5052616;28;20483;-60
2023/02/03 01:38:25;;;;;;;6.10;1.60;;;7.00;99.90;;;;;;5052212;28;20381;-60
2023/02/03 01:40:51;;;;;;;5.03;1.60;;;6.90;99.90;;;;;;5052552;28;20475;-60
2023/02/03 01:43:34;;;;;;;5.90;1.40;;;6.90;99.90;;;;;;5052112;28;20405;-60
2023/02/03 01:46:05;;;;;;;5.87;1.90;;;7.00;99.90;;;;;;5051226;28;20903;-60
2023/02/03 01:48:32;;;;;;;5.10;1.20;;;7.00;1.00;;;;;;5052478;28;20388;-60
2023/02/03 01:51:01;;;;;;;5.40;1.35;;;7.00;1.00;;;;;;5053001;28;20385;-60
2023/02/03 01:53:27;;;;;;;7.20;2.10;;;7.00;99.90;;;;;;5051629;28;20405;-60
2023/02/03 01:55:53;;;;;;;6.93;1.25;;;8.00;99.90;;;;;;5052569;28;20401;-60
2023/02/03 01:58:30;;;;;;;6.50;1.40;;;7.00;1.00;;;;;;5051701;28;20780;-60
2023/02/03 02:00:57;;;;;;;6.18;1.30;;;6.90;1.00;;;;;;5052303;28;20420;-60
2023/02/03 02:03:26;;;;;;;5.60;1.48;;;7.60;1.00;;;;;;5051560;28;20496;-60
2023/02/03 02:06:03;;;;;;;6.43;1.10;;;7.00;1.00;;;;;;5052657;28;20416;-60
2023/02/03 02:08:30;;;;;;;6.38;1.25;;;7.40;1.00;;;;;;5051545;28;20381;-59
2023/02/03 02:10:58;;;;;;;4.90;1.10;;;7.20;99.90;;;;;;5051960;28;20424;-60
2023/02/03 02:13:25;;;;;;;6.22;1.48;;;7.20;1.00;;;;;;5051023;28;20378;-60
2023/02/03 02:16:08;;;;;;;4.10;0.70;;;7.10;1.00;;;;;;5052481;28;20366;-60
2023/02/03 02:18:49;;;;;;;4.93;1.23;;;7.00;1.00;;;;;;5052166;28;20390;-60
2023/02/03 02:21:52;;;;;;;6.30;1.10;;;7.00;1.00;;;;;;5051364;28;20409;-60
2023/02/03 02:24:26;;;;;;;4.70;1.10;;;6.90;99.90;;;;;;5051406;28;20405;-60
2023/02/03 02:27:22;;;;;;;4.23;0.90;;;7.00;1.00;;;;;;5051130;28;20443;-60
2023/02/03 02:30:06;;;;;;;5.20;1.33;;;7.00;29.00;;;;;;5051615;28;20385;-60
2023/02/03 02:33:13;;;;;;;5.37;1.30;;;6.90;1.00;;;;;;5051723;28;20974;-59
2023/02/03 02:36:00;;;;;;;6.45;1.45;;;7.10;95.10;;;;;;5040450;28;20381;-60
2023/02/03 02:38:52;;;;;;;7.50;1.50;;;6.90;99.90;;;;;;5051107;28;20755;-60
2023/02/03 02:41:54;;;;;;;4.60;1.20;;;7.00;99.90;;;;;;5046318;28;20904;-59
2023/02/03 02:44:25;;;;;;;4.65;1.00;;;6.90;99.90;;;;;;5050113;28;20467;-59
2023/02/03 02:47:04;;;;;;;5.80;0.90;;;6.90;99.90;;;;;;5051534;28;20390;-59
2023/02/03 02:49:53;;;;;;;5.00;1.10;;;6.90;99.90;;;;;;5050778;28;20743;-60
2023/02/03 02:52:21;;;;;;;4.55;1.20;;;7.10;1.00;;;;;;5050454;28;20412;-60
2023/02/03 02:54:51;;;;;;;6.60;1.10;;;7.20;1.00;;;;;;5051230;28;20889;-60
2023/02/03 02:57:19;;;;;;;4.30;0.70;;;7.20;1.00;;;;;;5050565;28;20392;-62
2023/02/03 02:59:46;;;;;;;4.70;0.93;;;8.30;1.00;;;;;;5051083;28;20377;-60
2023/02/03 03:02:12;;;;;;;4.55;1.00;;;7.10;38.80;;;;;;5050503;28;20401;-59
2023/02/03 03:04:39;;;;;;;4.80;0.90;;;7.10;30.00;;;;;;5051052;28;20388;-60
2023/02/03 03:07:21;;;;;;;5.15;0.70;;;7.00;53.60;;;;;;5051226;28;20464;-60
2023/02/03 03:09:52;;;;;;;5.82;0.82;;;7.10;99.90;;;;;;5049637;28;20781;-59
2023/02/03 03:12:29;;;;;;;4.20;0.70;;;7.10;99.90;;;;;;5050475;28;20747;-59
2023/02/03 03:15:03;;;;;;;4.00;0.70;;;7.20;99.90;;;;;;5051447;28;20381;-60
2023/02/03 03:17:36;;;;;;;4.10;0.80;;;6.30;1.00;;;;;;5050506;28;20369;-60
2023/02/03 03:20:08;;;;;;;4.00;0.60;;;7.20;1.00;;;;;;5051601;28;20377;-60
2023/02/03 03:22:40;;;;;;;4.30;0.70;;;7.10;1.00;;;;;;5050765;28;20401;-59
2023/02/03 03:25:20;;;;;;;4.53;0.90;;;7.10;1.00;;;;;;5051081;28;20485;-61
2023/02/03 03:27:55;;;;;;;4.10;0.70;;;7.20;1.00;;;;;;5051548;28;20405;-61
2023/02/03 03:30:41;;;;;;;4.27;0.80;;;7.10;1.00;;;;;;5050305;28;20386;-59
2023/02/03 03:33:08;;;;;;;7.20;1.30;;;7.10;99.90;;;;;;5050160;28;20397;-59
2023/02/03 03:35:51;;;;;;;3.92;0.60;;;7.20;99.90;;;;;;5050700;28;20421;-60
2023/02/03 03:38:23;;;;;;;4.40;0.90;;;7.30;99.90;;;;;;5050076;28;20394;-59
2023/02/03 03:41:00;;;;;;;5.20;0.90;;;7.20;99.90;;;;;;5050497;28;20420;-60
2023/02/03 03:43:31;;;;;;;4.28;0.80;;;7.10;99.90;;;;;;5050007;28;20388;-62
2023/02/03 03:46:19;;;;;;;4.43;0.63;;;7.30;99.90;;;;;;5050959;28;20377;-62
2023/02/03 03:49:04;;;;;;;4.03;0.88;;;7.30;99.90;;;;;;5050652;28;20570;-62
2023/02/03 03:51:40;;;;;;;5.03;0.80;;;7.30;99.90;;;;;;5050237;28;20439;-62
2023/02/03 03:54:13;;;;;;;4.05;0.60;;;7.20;99.90;;;;;;5050998;28;20473;-62
2023/02/03 03:56:50;;;;;;;4.28;0.80;;;7.20;99.90;;;;;;5049662;28;20439;-62
2023/02/03 03:59:19;;;;;;;3.95;0.63;;;7.20;99.90;;;;;;5049991;28;20451;-62
2023/02/03 04:01:47;;;;;;;4.05;0.50;;;7.20;99.90;;;;;;5049970;28;20405;-61
2023/02/03 04:04:14;;;;;;;3.80;0.60;;;8.40;99.90;;;;;;5049985;28;20389;-61
2023/02/03 04:06:40;;;;;;;4.30;0.70;;;7.20;99.90;;;;;;5050500;28;20867;-62
2023/02/03 04:09:06;;;;;;;4.10;0.80;;;7.30;99.90;;;;;;5050364;28;20369;-61
2023/02/03 04:14:16;;;;;;;4.80;0.90;;;7.30;99.90;;;;;;5049611;28;20377;-62
2023/02/03 04:16:41;;;;;;;4.60;1.10;;;7.30;47.70;;;;;;5048901;28;20722;-61
2023/02/03 04:19:07;;;;;;;4.63;1.00;;;7.20;99.90;;;;;;5050347;28;20843;-61
2023/02/03 04:21:32;;;;;;;4.20;0.90;;;7.20;16.00;;;;;;5049557;28;20401;-62
2023/02/03 04:23:58;;;;;;;4.70;0.77;;;7.80;99.90;;;;;;5049887;28;20725;-62
2023/02/03 04:26:23;;;;;;;4.15;0.85;;;7.10;1.00;;;;;;5049213;28;20432;-62
2023/02/03 04:28:49;;;;;;;5.30;0.80;;;7.10;1.00;;;;;;5050367;28;20381;-62
2023/02/03 04:31:15;;;;;;;5.93;0.90;;;6.90;99.90;;;;;;5049696;28;20386;-62
2023/02/03 04:33:41;;;;;;;4.10;0.90;;;6.90;99.90;;;;;;5049929;28;20424;-59
2023/02/03 04:36:07;;;;;;;3.80;0.70;;;7.70;99.90;;;;;;5049690;28;20381;-60
2023/02/03 04:38:33;;;;;;;4.70;0.90;;;6.70;99.90;;;;;;5049402;28;20464;-60
2023/02/03 04:40:58;;;;;;;4.00;0.90;;;6.90;99.90;;;;;;5050046;28;20520;-60
2023/02/03 04:43:24;;;;;;;4.10;0.77;;;6.60;1.00;;;;;;5049072;28;20385;-60
2023/02/03 04:45:49;;;;;;;4.35;0.80;;;6.60;1.00;;;;;;5049764;28;20772;-60
2023/02/03 04:48:15;;;;;;;4.20;0.90;;;6.70;1.00;;;;;;5049041;28;20416;-60
2023/02/03 04:50:41;;;;;;;5.18;0.90;;;6.60;1.00;;;;;;5047399;28;20400;-60
2023/02/03 04:53:06;;;;;;;4.73;1.10;;;6.70;99.90;;;;;;5044909;28;20369;-60
2023/02/03 04:55:32;;;;;;;7.20;1.10;;;6.70;99.90;;;;;;5028922;28;20391;-60
2023/02/03 04:57:59;;;;;;;4.03;0.77;;;6.70;99.90;;;;;;5029958;28;20533;-60
2023/02/03 05:00:26;;;;;;;4.00;0.77;;;6.80;99.90;;;;;;5028985;28;20406;-60
2023/02/03 05:02:51;;;;;;;3.90;0.80;;;6.60;99.90;;;;;;5029688;28;20383;-60
2023/02/03 05:05:18;;;;;;;6.00;0.90;;;6.60;99.90;;;;;;5044916;28;20402;-60
2023/02/03 05:07:44;;;;;;;5.22;0.90;;;6.60;99.90;;;;;;5030962;28;20525;-60
2023/02/03 05:10:09;;;;;;;4.10;0.80;;;6.70;99.90;;;;;;5033234;28;20466;-59
2023/02/03 05:12:35;;;;;;;4.45;1.00;;;6.80;99.90;;;;;;5033648;28;20438;-60
2023/02/03 05:15:01;;;;;;;4.70;0.70;;;6.90;99.90;;;;;;5033891;28;20737;-60
2023/02/03 05:17:26;;;;;;;4.20;0.70;;;7.40;99.90;;;;;;5033664;28;20379;-62
2023/02/03 05:19:52;;;;;;;5.40;0.90;;;7.00;99.90;;;;;;5033436;28;20383;-62
2023/02/03 05:22:17;;;;;;;6.40;1.25;;;6.80;99.90;;;;;;5032786;28;20799;-59
2023/02/03 05:24:43;;;;;;;4.97;1.40;;;7.90;99.90;;;;;;5034837;28;20435;-59
2023/02/03 05:27:09;;;;;;;4.70;0.90;;;6.70;1.00;;;;;;5042886;28;20498;-59
2023/02/03 05:29:34;;;;;;;4.50;1.00;;;6.60;1.00;;;;;;5052925;28;20382;-60
2023/02/03 05:32:00;;;;;;;4.90;1.20;;;6.60;1.00;;;;;;5052832;28;20388;-60
2023/02/03 05:34:25;;;;;;;5.80;1.20;;;6.70;99.90;;;;;;5052174;28;20842;-59
2023/02/03 05:36:51;;;;;;;4.57;1.33;;;6.70;99.90;;;;;;5072246;28;20920;-59
2023/02/03 05:39:16;;;;;;;4.50;1.20;;;7.40;99.90;;;;;;5072727;28;20384;-60
2023/02/03 05:41:51;;;;;;;4.60;1.17;;;6.80;99.90;;;;;;5072320;28;20479;-59
2023/02/03 05:44:18;;;;;;;4.80;1.10;;;6.70;99.90;;;;;;5071783;28;20400;-59
2023/02/03 05:46:44;;;;;;;4.97;0.77;;;6.70;99.90;;;;;;5073135;28;20845;-60
2023/02/03 05:49:09;;;;;;;5.25;1.88;;;6.70;99.90;;;;;;5072710;28;20372;-60
2023/02/03 05:51:35;;;;;;;4.93;1.13;;;6.80;99.90;;;;;;5072415;28;20379;-59
2023/02/03 05:54:00;;;;;;;4.90;1.20;;;6.80;99.90;;;;;;5073124;28;20751;-58
2023/02/03 05:56:26;;;;;;;4.70;1.10;;;6.80;99.90;;;;;;5071763;28;20795;-59
2023/02/03 05:58:52;;;;;;;4.70;1.20;;;6.70;99.90;;;;;;5073150;28;20388;-59
2023/02/03 06:01:18;;;;;;;5.63;1.30;;;6.60;99.90;;;;;;5071809;28;20936;-59
2023/02/03 06:03:44;;;;;;;4.70;1.10;;;6.70;99.90;;;;;;5072507;28;20379;-59
2023/02/03 06:06:10;;;;;;;4.80;1.40;;;6.80;99.90;;;;;;5072394;28;20376;-59
2023/02/03 06:08:35;;;;;;;4.60;1.48;;;7.60;99.90;;;;;;5071332;28;20829;-59
2023/02/03 06:11:01;;;;;;;6.17;1.50;;;6.70;1.00;;;;;;5072183;28;20423;-59
2023/02/03 06:13:27;;;;;;;6.00;1.40;;;6.80;1.00;;;;;;5072228;28;20739;-59
2023/02/03 06:15:53;;;;;;;5.80;1.50;;;6.80;1.00;;;;;;5072508;28;20425;-59
2023/02/03 06:18:19;;;;;;;6.28;1.83;;;6.90;1.00;;;;;;5071171;28;20480;-59
2023/02/03 06:20:45;;;;;;;4.43;1.00;;;7.20;1.00;;;;;;5071285;28;20932;-59
2023/02/03 06:23:11;;;;;;;4.97;1.30;;;6.90;1.00;;;;;;5072478;28;20466;-59
2023/02/03 06:25:36;;;;;;;5.00;1.40;;;6.90;1.00;;;;;;5071634;28;20413;-59
2023/02/03 06:28:02;;;;;;;5.73;1.27;;;6.90;1.00;;;;;;5072621;28;20474;-59
2023/02/03 06:30:28;;;;;;;5.90;1.10;;;6.90;1.00;;;;;;5072012;28;20414;-59
2023/02/03 06:32:54;;;;;;;6.63;1.63;;;6.90;1.00;;;;;;5071992;28;20384;-59
2023/02/03 06:35:19;;;;;;;6.22;1.42;;;6.90;93.40;;;;;;5071903;28;20383;-59
2023/02/03 06:37:45;;;;;;;6.75;1.73;;;6.90;99.90;;;;;;5072198;28;20384;-59
2023/02/03 06:40:11;;;;;;;4.53;1.10;;;6.80;99.90;;;;;;5071895;28;20846;-59
2023/02/03 06:42:37;;;;;;;5.47;1.40;;;6.70;99.90;;;;;;5071727;28;20900;-59
2023/02/03 06:45:03;;;;;;;4.78;1.40;;;7.10;1.00;;;;;;5072293;28;20388;-60
2023/02/03 06:47:29;;;;;;;5.63;1.83;;;6.70;1.00;;;;;;5070548;28;20745;-60
2023/02/03 06:49:54;;;;;;;4.85;1.20;;;6.80;1.00;;;;;;5071887;28;20395;-59
2023/02/03 06:52:20;;;;;;;7.30;1.10;;;6.60;1.00;;;;;;5070850;28;20406;-60
2023/02/03 06:54:46;;;;;;;4.93;1.13;;;6.60;1.00;;;;;;5071710;28;20383;-59
2023/02/03 06:57:11;;;;;;;4.57;1.10;;;6.40;1.00;;;;;;5071396;28;20847;-59
2023/02/03 06:59:37;;;;;;;4.33;1.00;;;6.30;1.00;;;;;;5071216;28;20384;-60
2023/02/03 07:02:03;;;;;;;5.13;1.20;;;6.20;1.00;;;;;;5071435;28;20450;-61
2023/02/03 07:04:29;;;;;;;5.65;1.05;;;6.50;1.00;;;;;;5057162;28;20424;-59
2023/02/03 07:06:56;;;;;;;5.40;0.70;;;6.30;1.00;;;;;;5048487;28;20427;-61
2023/02/03 07:09:21;;;;;;;5.05;1.30;;;6.70;1.00;;;;;;5050527;28;20385;-61
2023/02/03 07:11:47;;;;;;;4.30;1.00;;;6.40;1.00;;;;;;5051740;28;20382;-59
2023/02/03 07:14:13;;;;;;;5.95;1.05;;;6.90;1.00;;;;;;5050939;28;20386;-59
2023/02/03 07:16:38;;;;;;;4.30;0.90;;;7.60;1.00;;;;;;5051215;28;20732;-59
2023/02/03 07:19:05;;;;;;;6.55;1.30;;;6.30;1.00;;;;;;5051126;28;20389;-59
2023/02/03 07:21:31;;;;;;;7.35;1.50;;;6.30;1.00;;;;;;5050201;28;20409;-59
2023/02/03 07:23:57;;;;;;;4.33;0.97;;;6.40;1.00;;;;;;5051098;28;20416;-60
2023/02/03 07:26:25;;;;;;;4.00;1.00;;;6.40;1.00;;;;;;5050122;28;20798;-59
2023/02/03 07:28:51;;;;;;;4.07;1.00;;;6.40;1.00;;;;;;5050892;28;20385;-59
2023/02/03 07:31:17;;;;;;;5.75;1.23;;;6.30;1.00;;;;;;5065597;28;20450;-59
2023/02/03 07:33:43;;;;;;;4.65;1.20;;;6.40;1.00;;;;;;5050611;28;20389;-59
2023/02/03 07:36:09;;;;;;;4.13;0.90;;;6.40;1.00;;;;;;5050539;28;20468;-59
2023/02/03 07:38:36;;;;;;;4.10;1.00;;;6.40;1.00;;;;;;5050260;28;21250;-59
2023/02/03 07:41:03;;;;;;;5.70;0.90;;;7.40;1.00;;;;;;5050590;28;20417;-59
2023/02/03 07:43:28;;;;;;;4.22;0.80;;;6.50;1.00;;;;;;5049867;28;20435;-59
2023/02/03 07:45:54;;;;;;;4.68;0.90;;;6.60;1.00;;;;;;5050775;28;20381;-59
2023/02/03 07:48:20;;;;;;;3.97;0.73;;;6.60;99.90;;;;;;5050175;28;20413;-59
2023/02/03 07:50:47;;;;;;;4.32;1.10;;;6.50;99.90;;;;;;5050368;28;20397;-59
2023/02/03 07:53:13;;;;;;;4.40;1.10;;;6.60;99.90;;;;;;5050124;28;20377;-59
2023/02/03 07:55:39;;;;;;;4.70;0.90;;;6.70;99.90;;;;;;5049827;28;20396;-59
2023/02/03 07:58:05;;;;;;;6.37;1.20;;;6.70;99.90;;;;;;5051007;28;20795;-62
2023/02/03 08:00:31;;;;;;;4.25;0.80;;;6.70;1.00;;;;;;5049664;28;20374;-59
2023/02/03 08:02:56;;;;;;;4.70;1.20;;;6.70;99.90;;;;;;5050294;28;20885;-59
2023/02/03 08:05:22;;;;;;;3.60;0.70;;;6.70;99.90;;;;;;5049656;28;20783;-59
2023/02/03 08:07:48;;;;;;;4.90;0.77;;;6.80;99.90;;;;;;5050163;28;20373;-59
2023/02/03 08:10:15;;;;;;;4.53;0.80;;;6.90;99.90;;;;;;5050203;28;20404;-59
2023/02/03 08:12:42;;;;;;;4.35;1.05;;;7.00;48.30;;;;;;5050509;28;20389;-59
2023/02/03 08:15:09;;;;;;;4.80;0.60;;;7.00;61.30;;;;;;5050415;28;20384;-59
2023/02/03 08:17:35;;;;;;;5.00;0.90;;;7.10;1.00;;;;;;5049788;28;20400;-59
2023/02/03 08:20:01;;;;;;;4.35;0.70;;;7.30;1.00;;;;;;5050474;28;20386;-59
2023/02/03 08:22:26;;;;;;;5.00;1.00;;;7.20;1.00;;;;;;5048896;28;20412;-59
2023/02/03 08:24:52;;;;;;;3.90;0.60;;;7.20;99.90;;;;;;5049824;28;20412;-59
2023/02/03 08:27:21;;;;;;;3.80;0.60;;;7.20;99.90;;;;;;5049094;28;20759;-59
2023/02/03 08:29:47;;;;;;;3.72;0.63;;;7.10;99.90;;;;;;5050177;28;20381;-59
2023/02/03 08:32:21;;;;;;;4.72;1.05;;;7.10;99.90;;;;;;5049753;28;20382;-59
2023/02/03 08:34:48;;;;;;;4.00;0.77;;;7.00;99.90;;;;;;5050245;28;20381;-59
2023/02/03 08:37:15;;;;;;;4.40;0.73;;;7.00;99.90;;;;;;5049270;28;20385;-59
2023/02/03 08:39:41;;;;;;;3.75;0.70;;;7.10;99.90;;;;;;5049550;28;20377;-60
2023/02/03 08:42:08;;;;;;;3.90;0.73;;;7.10;99.90;;;;;;5048940;28;20863;-60
2023/02/03 08:44:34;;;;;;;4.23;0.80;;;7.10;99.90;;;;;;5048736;28;20417;-59
2023/02/03 08:47:00;;;;;;;3.80;0.80;;;7.10;99.90;;;;;;5050086;28;20440;-60
2023/02/03 08:49:29;;;;;;;4.25;0.63;;;7.20;95.00;;;;;;5049704;28;20369;-59
2023/02/03 08:51:57;;;;;;;4.80;0.80;;;7.20;1.00;;;;;;5049520;28;20390;-60
2023/02/03 08:54:23;;;;;;;4.60;0.73;;;7.20;1.00;;;;;;5049360;28;20397;-60
2023/02/03 08:56:49;;;;;;;4.82;1.08;;;7.20;16.50;;;;;;5049327;28;20393;-59
2023/02/03 08:59:15;;;;;;;4.32;0.88;;;7.20;99.90;;;;;;5049169;28;20460;-59
2023/02/03 09:01:47;;;;;;;4.80;1.17;;;7.20;99.90;;;;;;5049791;28;20500;-59
2023/02/03 09:04:13;;;;;;;4.65;0.98;;;7.30;99.90;;;;;;5048983;28;20794;-60
2023/02/03 09:06:39;;;;;;;4.37;0.70;;;7.40;93.80;;;;;;5048661;28;20381;-60
2023/02/03 09:09:04;;;;;;;5.70;1.00;;;7.30;15.90;;;;;;5065169;28;20692;-59
2023/02/03 09:11:30;;;;;;;6.70;0.88;;;7.70;38.10;;;;;;5049107;28;20709;-59
2023/02/03 09:13:56;;;;;;;4.83;1.30;;;7.40;1.00;;;;;;5049090;28;20388;-59
2023/02/03 09:16:23;;;;;;;4.65;0.80;;;7.40;1.00;;;;;;5048661;28;20450;-59
2023/02/03 09:18:49;;;;;;;3.97;0.90;;;7.40;99.90;;;;;;5049536;28;20378;-59
2023/02/03 09:21:15;;;;;;;4.30;0.70;;;8.10;1.00;;;;;;5048999;28;20874;-61
2023/02/03 09:23:42;;;;;;;4.10;0.77;;;7.60;1.00;;;;;;5049360;28;20378;-61
2023/02/03 09:26:10;;;;;;;5.03;0.80;;;7.70;1.00;;;;;;5049401;28;20428;-61
2023/02/03 09:28:36;;;;;;;4.82;1.02;;;7.90;99.90;;;;;;5047118;28;21136;-61
2023/02/03 09:31:04;;;;;;;3.90;0.50;;;8.40;99.90;;;;;;5049471;28;20475;-61
2023/02/03 09:33:29;;;;;;;4.10;0.50;;;9.00;1.00;;;;;;5049118;28;20385;-62
2023/02/03 09:35:56;;;;;;;4.50;0.60;;;9.20;1.00;;;;;;5049275;28;20390;-59
2023/02/03 09:38:23;;;;;;;6.80;0.70;;;9.20;1.00;;;;;;5048419;28;20419;-59
2023/02/03 09:40:56;;;;;;;4.00;0.70;;;8.90;1.00;;;;;;5049163;28;20401;-59
2023/02/03 09:43:33;;;;;;;4.40;0.60;;;8.50;99.90;;;;;;5048292;28;20381;-59
2023/02/03 09:46:06;;;;;;;4.30;0.80;;;8.30;1.00;;;;;;5049221;28;20381;-59
2023/02/03 09:48:51;;;;;;;4.00;0.43;;;8.20;1.00;;;;;;5048784;28;20433;-61
2023/02/03 09:51:30;;;;;;;4.30;0.70;;;8.10;99.90;;;;;;5048622;28;20394;-61
2023/02/03 09:54:03;;;;;;;4.20;0.65;;;9.40;99.90;;;;;;5050870;28;20385;-61
2023/02/03 09:56:32;;;;;;;4.70;0.90;;;8.70;1.00;;;;;;5052975;28;20470;-60
2023/02/03 09:59:00;;;;;;;3.80;0.70;;;9.00;1.00;;;;;;5052554;28;20382;-62
2023/02/03 10:01:36;;;;;;;4.80;0.70;;;8.70;99.90;;;;;;5051776;28;20778;-61
2023/02/03 10:04:38;;;;;;;3.88;0.40;;;8.60;99.90;;;;;;5052405;28;20397;-61
2023/02/03 10:07:24;;;;;;;5.70;0.70;;;8.50;99.90;;;;;;5052773;28;20382;-61
2023/02/03 10:10:12;;;;;;;4.00;0.70;;;8.60;99.90;;;;;;5052374;28;20408;-62
2023/02/03 10:13:03;;;;;;;3.90;0.60;;;8.80;99.90;;;;;;5051898;28;20393;-61
2023/02/03 10:15:46;;;;;;;4.25;0.60;;;8.90;1.00;;;;;;5046540;28;20429;-62
2023/02/03 10:18:28;;;;;;;3.90;0.47;;;8.80;1.00;;;;;;5032729;28;20379;-61
2023/02/03 10:21:01;;;;;;;4.25;0.60;;;8.50;1.00;;;;;;5032574;28;20553;-61
2023/02/03 10:23:34;;;;;;;4.20;0.60;;;8.30;1.00;;;;;;5031228;28;20401;-61
2023/02/03 10:26:05;;;;;;;3.80;0.50;;;8.30;99.90;;;;;;5032055;28;20768;-62
2023/02/03 10:28:40;;;;;;;4.20;0.60;;;8.30;1.00;;;;;;5032194;28;20865;-61
2023/02/03 10:31:22;;;;;;;4.00;0.40;;;8.30;1.00;;;;;;5032355;28;20383;-61
2023/02/03 10:33:59;;;;;;;4.10;0.70;;;8.30;99.90;;;;;;5032162;28;20387;-61
2023/02/03 10:36:45;;;;;;;4.30;0.60;;;8.40;53.80;;;;;;5031215;28;20915;-61
2023/02/03 10:39:21;;;;;;;3.80;0.50;;;8.50;67.20;;;;;;5031891;28;20390;-61
2023/02/03 10:41:47;;;;;;;3.80;0.50;;;8.60;99.90;;;;;;5032232;28;20502;-61
2023/02/03 10:44:14;;;;;;;4.30;0.50;;;8.60;1.00;;;;;;5032275;28;20874;-61
2023/02/03 10:46:42;;;;;;;4.30;0.60;;;8.60;1.00;;;;;;5031878;28;20381;-62
2023/02/03 10:49:10;;;;;;;3.90;0.40;;;8.70;99.90;;;;;;5031636;28;20852;-61
2023/02/03 10:51:47;;;;;;;3.92;0.50;;;8.80;99.90;;;;;;5031635;28;20705;-62
2023/02/03 10:54:33;;;;;;;4.60;0.80;;;9.00;99.90;;;;;;5031325;28;20441;-59
2023/02/03 10:57:11;;;;;;;3.80;0.50;;;9.00;99.90;;;;;;5031810;28;20391;-61
2023/02/03 10:59:41;;;;;;;4.07;0.55;;;9.00;99.90;;;;;;5031534;28;20379;-59
2023/02/03 11:02:09;;;;;;;4.20;0.55;;;9.10;99.90;;;;;;5031353;28;20411;-61
2023/02/03 11:04:37;;;;;;;4.30;0.50;;;9.00;99.90;;;;;;5030462;28;20387;-62
2023/02/03 11:07:25;;;;;;;4.20;0.70;;;8.80;99.90;;;;;;5031119;28;20384;-62
2023/02/03 11:09:51;;;;;;;3.80;0.50;;;8.70;99.90;;;;;;5031154;28;20394;-62
2023/02/03 11:12:18;;;;;;;4.30;0.50;;;8.70;99.90;;;;;;5030996;28;20391;-62
2023/02/03 11:14:49;;;;;;;4.50;0.90;;;8.50;99.90;;;;;;5045741;28;20386;-59
2023/02/03 11:17:25;;;;;;;4.10;0.50;;;8.50;99.90;;;;;;5051343;28;20385;-62
2023/02/03 11:19:53;;;;;;;4.20;0.50;;;8.50;99.90;;;;;;5050970;28;20393;-62
2023/02/03 11:22:28;;;;;;;3.80;0.40;;;8.60;99.90;;;;;;5050474;28;20452;-59
2023/02/03 11:24:55;;;;;;;3.90;0.30;;;9.60;99.90;;;;;;5050859;28;20405;-63
2023/02/03 11:27:22;;;;;;;3.70;0.43;;;8.40;99.90;;;;;;5050558;28;20770;-62
2023/02/03 11:29:55;;;;;;;3.80;0.40;;;8.30;99.90;;;;;;5050896;28;20393;-62
2023/02/03 11:32:33;;;;;;;3.80;0.47;;;8.90;99.90;;;;;;5050757;28;20390;-62
2023/02/03 11:35:22;;;;;;;3.70;0.38;;;8.50;99.90;;;;;;5051068;28;20417;-62
2023/02/03 11:37:53;;;;;;;3.90;0.50;;;8.30;99.90;;;;;;5050586;28;20394;-61
2023/02/03 11:40:27;;;;;;;3.70;0.40;;;8.30;99.90;;;;;;5050278;28;20468;-61
2023/02/03 11:42:55;;;;;;;3.70;0.30;;;8.40;99.90;;;;;;5050751;28;20758;-62
2023/02/03 11:45:26;;;;;;;4.10;0.40;;;8.50;99.90;;;;;;5050174;28;20420;-61
2023/02/03 11:48:04;;;;;;;4.60;0.40;;;8.40;99.90;;;;;;5050998;28;20385;-61
2023/02/03 11:50:37;;;;;;;3.90;0.43;;;8.30;99.90;;;;;;5049931;28;20895;-61
2023/02/03 11:53:24;;;;;;;4.30;0.52;;;8.50;99.90;;;;;;5050560;28;20851;-61
2023/02/03 11:56:28;;;;;;;3.78;0.50;;;8.50;52.40;;;;;;5050576;28;20442;-61
2023/02/03 11:59:16;;;;;;;5.80;0.40;;;8.70;46.60;;;;;;5050404;28;20501;-61
2023/02/03 12:01:54;;;;;;;3.70;0.40;;;8.60;1.00;;;;;;5049776;28;20401;-61
2023/02/03 12:04:28;;;;;;;3.77;0.40;;;8.60;3.40;;;;;;5050293;28;20424;-61
2023/02/03 12:06:57;;;;;;;3.90;0.50;;;8.50;31.10;;;;;;5050769;28;20377;-62
2023/02/03 12:09:42;;;;;;;3.80;0.30;;;8.40;1.00;;;;;;5049401;28;20408;-61
2023/02/03 12:12:41;;;;;;;3.93;0.33;;;8.40;1.00;;;;;;5049868;28;20386;-61
2023/02/03 12:15:26;;;;;;;3.90;0.37;;;8.40;2.80;;;;;;5050144;28;20390;-61
2023/02/03 12:18:12;;;;;;;4.70;0.55;;;8.40;36.80;;;;;;5049512;28;20857;-61
2023/02/03 12:21:05;;;;;;;3.90;0.40;;;8.30;25.80;;;;;;5049559;28;20427;-61
2023/02/03 12:23:45;;;;;;;4.10;0.60;;;8.30;30.00;;;;;;5049371;28;20389;-60
2023/02/03 12:26:33;;;;;;;3.85;0.40;;;8.40;68.70;;;;;;5050287;28;20510;-60
2023/02/03 12:29:07;;;;;;;3.90;0.50;;;8.40;1.00;;;;;;5050003;28;20409;-60
2023/02/03 12:32:02;;;;;;;4.20;0.50;;;8.30;1.00;;;;;;5049555;28;20445;-60
2023/02/03 12:34:32;;;;;;;4.00;0.60;;;8.30;1.00;;;;;;5040999;28;20455;-61
2023/02/03 12:37:23;;;;;;;4.15;0.63;;;8.30;1.00;;;;;;5049972;28;20392;-61
2023/02/03 12:39:57;;;;;;;3.70;0.30;;;8.20;1.00;;;;;;5042954;28;20424;-61
2023/02/03 12:42:29;;;;;;;4.07;0.60;;;8.80;1.00;;;;;;5049287;28;20437;-61
2023/02/03 12:45:23;;;;;;;3.90;0.43;;;8.20;1.00;;;;;;5050236;28;20638;-61
2023/02/03 12:48:03;;;;;;;4.25;0.55;;;8.10;1.00;;;;;;5041441;28;20389;-61
2023/02/03 12:50:39;;;;;;;4.85;0.55;;;8.10;1.00;;;;;;5029028;28;20433;-60
2023/02/03 12:53:10;;;;;;;3.88;0.40;;;8.20;3.00;;;;;;5045866;28;20385;-61
2023/02/03 12:55:38;;;;;;;3.95;0.40;;;8.10;1.00;;;;;;5047190;28;20862;-61
2023/02/03 12:58:14;;;;;;;4.00;0.40;;;8.10;1.00;;;;;;5048597;28;20420;-61
2023/02/03 13:00:55;;;;;;;4.80;0.50;;;9.30;1.00;;;;;;5047299;28;20444;-61
2023/02/03 13:03:30;;;;;;;4.10;0.60;;;8.20;1.00;;;;;;5048781;28;20428;-61
2023/02/03 13:05:56;;;;;;;4.20;0.50;;;8.10;1.00;;;;;;5049619;28;20382;-61
2023/02/03 13:08:44;;;;;;;5.70;0.60;;;8.20;1.00;;;;;;5048703;28;20403;-61
2023/02/03 13:11:26;;;;;;;3.90;0.50;;;8.30;1.00;;;;;;5022784;28;20460;-61
2023/02/03 13:13:55;;;;;;;4.00;0.40;;;8.20;1.00;;;;;;5040763;28;20759;-61
2023/02/03 13:16:29;;;;;;;3.90;0.45;;;8.20;1.00;;;;;;5047478;28;20736;-61
2023/02/03 13:19:01;;;;;;;3.80;0.40;;;8.20;1.00;;;;;;5049674;28;20448;-61
2023/02/03 13:21:27;;;;;;;3.80;0.40;;;8.20;1.00;;;;;;5048906;28;20819;-60
2023/02/03 13:23:53;;;;;;;4.03;0.50;;;8.10;1.00;;;;;;5050024;28;20472;-60